Time;durP1;ratioP1;P1;durP2;ratioP2;P2;SDS_P1;SDS_P2;PMS_P1;PMS_P2;Temp;Humidity;BMP_temperature;BMP_pressure;BME280_temperature;BME280_humidity;BME280_pressure;Samples;Min_cycle;Max_cycle;Signal;HPM_P1;HPM_P2
2023/10/14 00:01:13;;;;;;;5.95;1.75;;;19.90;98.90;;;;;;4247229;27;20085;-57
2023/10/14 00:03:50;;;;;;;5.10;1.45;;;19.90;99.10;;;;;;4265615;27;20118;-57
2023/10/14 00:05:45;;;;;;;4.30;1.17;;;19.80;99.20;;;;;;4261653;27;20038;-56
2023/10/14 00:07:47;;;;;;;3.05;1.15;;;19.80;99.70;;;;;;4265039;27;20042;-56
2023/10/14 00:09:50;;;;;;;6.75;1.60;;;19.70;99.90;;;;;;4265534;27;20073;-56
2023/10/14 00:11:56;;;;;;;5.25;1.50;;;19.70;99.90;;;;;;4265235;27;20042;-57
2023/10/14 00:14:18;;;;;;;6.47;1.38;;;19.60;99.90;;;;;;4265285;27;20121;-56
2023/10/14 00:16:35;;;;;;;8.90;2.00;;;19.50;99.90;;;;;;4265565;27;20047;-56
2023/10/14 00:18:42;;;;;;;9.32;2.20;;;19.50;99.90;;;;;;4265118;27;20452;-56
2023/10/14 00:20:45;;;;;;;6.18;1.38;;;19.40;99.90;;;;;;4265168;27;20090;-56
2023/10/14 00:22:47;;;;;;;13.40;2.05;;;19.40;99.90;;;;;;4265713;27;20445;-56
2023/10/14 00:24:52;;;;;;;5.05;1.42;;;19.40;99.90;;;;;;4247046;27;20118;-56
2023/10/14 00:26:55;;;;;;;4.63;1.48;;;19.40;99.90;;;;;;4265644;27;20067;-57
2023/10/14 00:31:13;;;;;;;4.15;1.35;;;19.30;99.90;;;;;;4265284;27;20099;-57
2023/10/14 00:33:15;;;;;;;4.85;1.30;;;19.20;99.90;;;;;;4265259;27;20047;-57
2023/10/14 00:35:19;;;;;;;6.68;1.40;;;19.10;99.90;;;;;;4265005;27;20073;-58
2023/10/14 00:37:21;;;;;;;4.82;1.30;;;19.00;99.90;;;;;;4265660;27;20130;-57
2023/10/14 00:39:26;;;;;;;4.65;1.17;;;19.00;99.90;;;;;;4264863;27;20058;-57
2023/10/14 00:41:29;;;;;;;4.70;1.48;;;18.90;99.90;;;;;;4264367;27;20453;-57
2023/10/14 00:43:31;;;;;;;3.15;1.00;;;18.90;99.90;;;;;;4264789;27;20070;-56
2023/10/14 00:45:43;;;;;;;5.00;1.15;;;18.90;99.90;;;;;;4264889;27;20047;-57
2023/10/14 00:47:45;;;;;;;2.85;1.08;;;18.80;99.90;;;;;;4264931;27;20066;-57
2023/10/14 00:49:48;;;;;;;5.45;1.13;;;18.80;99.90;;;;;;4264655;27;20104;-57
2023/10/14 00:51:53;;;;;;;4.53;1.10;;;18.80;99.90;;;;;;4264930;27;20126;-56
2023/10/14 00:54:02;;;;;;;1.92;0.70;;;18.80;99.90;;;;;;4264897;27;20046;-57
2023/10/14 00:56:05;;;;;;;3.00;0.98;;;18.80;99.90;;;;;;4264919;27;20043;-57
2023/10/14 00:58:07;;;;;;;2.80;0.88;;;18.70;99.90;;;;;;4264623;27;20047;-57
2023/10/14 01:00:11;;;;;;;3.65;0.82;;;18.60;99.90;;;;;;4264676;27;20043;-57
2023/10/14 01:02:15;;;;;;;2.20;0.98;;;18.60;99.90;;;;;;4264702;27;20047;-57
2023/10/14 01:04:21;;;;;;;2.38;0.90;;;18.60;99.90;;;;;;4264828;27;20374;-56
2023/10/14 01:06:31;;;;;;;5.95;1.40;;;18.60;99.90;;;;;;4264951;27;20416;-57
2023/10/14 01:08:42;;;;;;;3.47;0.93;;;18.60;99.90;;;;;;4264746;27;20038;-57
2023/10/14 01:10:45;;;;;;;3.22;1.05;;;18.60;99.90;;;;;;4264828;27;20077;-56
2023/10/14 01:12:53;;;;;;;2.90;1.02;;;18.60;99.90;;;;;;4264711;27;20122;-57
2023/10/14 01:14:59;;;;;;;6.50;1.27;;;18.60;99.90;;;;;;4264896;27;20050;-56
2023/10/14 01:17:04;;;;;;;3.15;1.00;;;18.50;99.90;;;;;;4264356;27;20050;-57
2023/10/14 01:19:11;;;;;;;5.35;1.00;;;18.40;99.90;;;;;;4264211;27;20046;-55
2023/10/14 01:21:13;;;;;;;3.05;1.20;;;18.40;99.90;;;;;;4264797;27;20404;-56
2023/10/14 01:23:17;;;;;;;5.45;1.00;;;18.40;99.90;;;;;;4264345;27;20679;-57
2023/10/14 01:25:19;;;;;;;4.10;1.25;;;18.40;99.90;;;;;;4264731;27;20042;-56
2023/10/14 01:27:21;;;;;;;5.35;1.00;;;18.30;99.90;;;;;;4264593;27;20072;-57
2023/10/14 01:29:30;;;;;;;5.43;1.10;;;18.30;99.90;;;;;;4264481;27;20042;-57
2023/10/14 01:32:05;;;;;;;7.20;1.55;;;18.20;99.90;;;;;;4264534;27;20074;-57
2023/10/14 01:34:08;;;;;;;4.97;1.23;;;18.20;99.90;;;;;;4264261;27;20121;-57
2023/10/14 01:36:11;;;;;;;4.60;1.25;;;18.10;99.90;;;;;;4264292;27;20438;-57
2023/10/14 01:38:16;;;;;;;4.90;1.40;;;18.00;99.90;;;;;;4264443;27;20043;-57
2023/10/14 01:42:29;;;;;;;9.13;1.85;;;18.00;99.90;;;;;;4264566;27;20129;-57
2023/10/14 01:44:32;;;;;;;7.40;1.25;;;17.80;99.90;;;;;;4264329;27;20137;-57
2023/10/14 01:46:39;;;;;;;7.45;1.80;;;17.70;99.90;;;;;;4264403;27;20043;-56
2023/10/14 01:48:44;;;;;;;5.75;1.60;;;17.60;99.90;;;;;;4264156;27;20556;-57
2023/10/14 01:50:50;;;;;;;5.55;1.60;;;17.40;99.90;;;;;;4264475;27;20117;-56
2023/10/14 01:52:53;;;;;;;10.23;1.70;;;17.50;99.90;;;;;;4264246;27;20050;-57
2023/10/14 01:54:56;;;;;;;11.93;1.77;;;17.30;99.90;;;;;;4267416;27;20111;-57
2023/10/14 01:56:59;;;;;;;9.13;1.90;;;17.30;99.90;;;;;;4267598;27;20071;-56
2023/10/14 01:59:02;;;;;;;6.40;2.00;;;17.10;99.90;;;;;;4267762;27;20092;-57
2023/10/14 02:01:12;;;;;;;9.93;2.05;;;17.20;99.90;;;;;;4266899;27;20126;-57
2023/10/14 02:03:16;;;;;;;9.23;1.83;;;17.10;99.90;;;;;;4267176;27;20407;-57
2023/10/14 02:05:20;;;;;;;8.70;1.95;;;16.90;99.90;;;;;;4267609;27;20047;-56
2023/10/14 02:07:23;;;;;;;13.27;1.93;;;16.90;99.90;;;;;;4266903;27;20059;-56
2023/10/14 02:09:29;;;;;;;9.75;2.00;;;16.90;99.90;;;;;;4248919;27;20086;-56
2023/10/14 02:11:35;;;;;;;7.72;2.20;;;16.90;99.90;;;;;;4267432;27;20047;-57
2023/10/14 02:13:39;;;;;;;10.60;2.63;;;16.60;98.20;;;;;;4267436;27;20118;-53
2023/10/14 02:15:46;;;;;;;9.88;2.42;;;16.30;98.50;;;;;;4267327;27;20122;-53
2023/10/14 02:17:48;;;;;;;10.20;2.38;;;16.20;98.70;;;;;;4267213;27;20089;-54
2023/10/14 02:19:54;;;;;;;10.20;2.25;;;16.20;98.40;;;;;;4267253;27;20050;-53
2023/10/14 02:22:01;;;;;;;7.32;1.98;;;16.20;98.40;;;;;;4249093;27;20079;-53
2023/10/14 02:24:09;;;;;;;10.90;2.90;;;16.10;98.30;;;;;;4268907;27;20067;-60
2023/10/14 02:26:16;;;;;;;13.57;2.75;;;16.00;98.20;;;;;;4268084;27;20066;-55
2023/10/14 02:28:18;;;;;;;9.55;2.25;;;16.00;98.40;;;;;;4267819;27;20063;-56
2023/10/14 02:30:23;;;;;;;16.15;2.20;;;16.00;98.10;;;;;;4267420;27;20047;-54
2023/10/14 02:32:26;;;;;;;13.68;2.28;;;16.10;98.00;;;;;;4267235;27;20539;-54
2023/10/14 02:34:30;;;;;;;9.95;2.90;;;16.00;97.70;;;;;;4267352;27;20107;-54
2023/10/14 02:36:35;;;;;;;8.23;2.10;;;16.00;97.50;;;;;;4267319;27;20072;-55
2023/10/14 02:38:37;;;;;;;15.52;2.50;;;15.90;97.80;;;;;;4267369;27;20434;-54
2023/10/14 02:40:40;;;;;;;10.18;2.55;;;15.90;98.00;;;;;;4267772;27;20381;-54
2023/10/14 02:42:42;;;;;;;15.07;3.15;;;15.90;97.70;;;;;;4267521;27;20454;-55
2023/10/14 02:44:46;;;;;;;10.45;3.03;;;15.80;97.60;;;;;;4268142;27;20049;-55
2023/10/14 02:46:54;;;;;;;10.27;2.92;;;15.80;97.50;;;;;;4268733;27;20066;-56
2023/10/14 02:49:02;;;;;;;13.38;2.95;;;15.70;97.50;;;;;;4268719;27;20050;-55
2023/10/14 02:51:06;;;;;;;13.93;3.65;;;15.60;97.50;;;;;;4269355;27;20053;-55
2023/10/14 02:53:18;;;;;;;7.60;2.72;;;15.60;97.90;;;;;;4268606;27;20039;-58
2023/10/14 02:55:25;;;;;;;15.63;2.40;;;15.60;97.30;;;;;;4268228;27;20042;-57
2023/10/14 02:57:28;;;;;;;12.70;3.50;;;15.60;97.60;;;;;;4267697;27;20043;-56
2023/10/14 02:59:51;;;;;;;10.48;2.50;;;15.60;97.70;;;;;;4267393;27;20485;-57
2023/10/14 03:04:18;;;;;;;11.30;2.97;;;15.60;98.00;;;;;;4266944;27;20049;-56
2023/10/14 03:06:20;;;;;;;13.00;2.50;;;15.40;97.70;;;;;;4249063;27;20043;-56
2023/10/14 03:08:22;;;;;;;10.65;2.97;;;15.30;97.30;;;;;;4267964;27;20043;-56
2023/10/14 03:12:31;;;;;;;14.05;3.65;;;15.20;97.20;;;;;;4267094;27;20448;-61
2023/10/14 03:14:40;;;;;;;15.25;3.65;;;15.20;97.00;;;;;;4267739;27;20066;-56
2023/10/14 03:16:44;;;;;;;11.40;3.42;;;15.10;96.70;;;;;;4267965;27;20043;-55
2023/10/14 03:18:48;;;;;;;13.18;3.53;;;15.10;96.80;;;;;;4268575;27;20046;-54
2023/10/14 03:21:08;;;;;;;15.23;3.45;;;15.10;97.10;;;;;;4267425;27;20126;-58
2023/10/14 03:23:23;;;;;;;19.50;3.65;;;15.10;96.90;;;;;;4267979;27;20042;-55
2023/10/14 03:25:29;;;;;;;15.57;3.40;;;15.20;96.90;;;;;;4248471;27;20472;-58
2023/10/14 03:27:39;;;;;;;11.10;3.10;;;15.10;96.90;;;;;;4248629;27;20050;-58
2023/10/14 03:29:46;;;;;;;14.40;3.60;;;15.10;96.80;;;;;;4265816;27;20062;-59
2023/10/14 03:31:50;;;;;;;16.30;3.58;;;15.00;96.60;;;;;;4265991;27;20046;-59
2023/10/14 03:33:58;;;;;;;16.23;4.05;;;14.90;96.40;;;;;;4266108;27;20076;-59
2023/10/14 03:36:03;;;;;;;12.13;3.08;;;14.90;96.40;;;;;;4266210;27;20092;-59
2023/10/14 03:38:26;;;;;;;10.45;2.75;;;15.00;97.00;;;;;;4266029;27;20099;-59
2023/10/14 03:43:10;;;;;;;11.07;2.97;;;14.90;96.70;;;;;;4195989;28;20049;-59
2023/10/14 03:45:20;;;;;;;14.48;3.70;;;14.90;96.90;;;;;;4195680;28;20158;-58
2023/10/14 03:47:22;;;;;;;15.80;3.88;;;14.90;96.70;;;;;;4196017;28;20056;-59
2023/10/14 03:49:26;;;;;;;12.07;3.10;;;14.90;97.00;;;;;;4196014;28;20094;-59
2023/10/14 03:51:29;;;;;;;11.63;2.72;;;14.90;96.70;;;;;;4195802;28;20060;-58
2023/10/14 03:53:31;;;;;;;13.95;2.92;;;14.90;97.10;;;;;;4195950;28;20582;-58
2023/10/14 03:55:33;;;;;;;13.20;2.30;;;14.90;96.70;;;;;;4195779;28;20439;-59
2023/10/14 03:57:37;;;;;;;16.73;3.15;;;14.90;97.10;;;;;;4195671;28;20484;-58
2023/10/14 03:59:41;;;;;;;19.53;3.27;;;15.00;96.70;;;;;;4195523;28;20048;-55
2023/10/14 04:01:44;;;;;;;16.20;3.38;;;14.80;96.70;;;;;;4195955;28;20139;-58
2023/10/14 04:03:51;;;;;;;12.93;2.80;;;14.80;96.90;;;;;;4195969;28;20088;-56
2023/10/14 04:06:00;;;;;;;13.65;3.67;;;14.80;97.00;;;;;;4195810;28;20498;-55
2023/10/14 04:08:05;;;;;;;13.45;3.00;;;14.80;96.30;;;;;;4196002;28;20084;-55
2023/10/14 04:10:09;;;;;;;;;;;14.80;96.60;;;;;;4196423;28;20076;-55
2023/10/14 04:12:29;;;;;;;11.32;2.80;;;14.80;96.20;;;;;;4196993;28;19975;-58
2023/10/14 04:14:35;;;;;;;16.13;4.15;;;14.70;96.40;;;;;;4195700;28;20049;-58
2023/10/14 04:17:22;;;;;;;18.40;3.85;;;14.60;96.50;;;;;;4202450;27;20045;-56
2023/10/14 04:19:00;;;;;;;11.63;2.97;;;14.50;96.30;;;;;;4234172;27;20066;-55
2023/10/14 04:21:25;;;;;;;15.52;3.65;;;14.60;96.50;;;;;;4248545;27;20450;-55
2023/10/14 04:23:29;;;;;;;14.50;3.53;;;14.50;96.60;;;;;;4248239;27;20047;-56
2023/10/14 04:25:42;;;;;;;14.45;2.97;;;14.50;96.30;;;;;;4248141;27;20096;-55
2023/10/14 04:30:10;;;;;;;17.98;3.38;;;14.50;96.80;;;;;;4248179;27;20066;-55
2023/10/14 04:32:16;;;;;;;13.02;3.72;;;14.40;96.30;;;;;;4248142;27;20448;-55
2023/10/14 04:34:22;;;;;;;17.98;3.65;;;14.50;96.70;;;;;;4248078;27;20393;-56
2023/10/14 04:39:26;;;;;;;11.77;3.05;;;14.50;96.10;;;;;;4179668;28;20057;-57
2023/10/14 04:41:25;;;;;;;14.70;3.30;;;14.50;96.90;;;;;;4180871;28;20236;-55
2023/10/14 04:45:34;;;;;;;13.77;3.08;;;14.40;96.90;;;;;;4178783;28;20458;-57
2023/10/14 04:47:47;;;;;;;18.33;3.63;;;14.40;96.50;;;;;;4162917;28;20098;-55
2023/10/14 04:49:54;;;;;;;10.18;3.03;;;14.30;96.40;;;;;;4178812;28;20053;-55
2023/10/14 04:51:58;;;;;;;14.15;3.50;;;14.30;96.70;;;;;;4178559;28;20057;-56
2023/10/14 04:54:01;;;;;;;10.32;3.55;;;14.40;96.80;;;;;;4178895;28;20060;-55
2023/10/14 04:56:04;;;;;;;11.65;3.72;;;14.40;97.30;;;;;;4178186;28;20494;-54
2023/10/14 04:58:12;;;;;;;19.10;3.90;;;14.40;96.50;;;;;;4179254;28;20179;-56
2023/10/14 05:01:06;;;;;;;11.55;3.08;;;14.40;96.70;;;;;;4178953;28;20257;-55
2023/10/14 05:03:12;;;;;;;15.23;3.33;;;14.40;96.70;;;;;;4177948;28;20099;-54
2023/10/14 05:05:19;;;;;;;19.73;3.22;;;14.30;96.80;;;;;;4178662;28;20052;-57
2023/10/14 05:07:28;;;;;;;14.68;3.40;;;14.30;97.30;;;;;;4161912;28;20049;-56
2023/10/14 05:09:30;;;;;;;12.52;3.15;;;14.40;97.40;;;;;;4178332;28;20148;-55
2023/10/14 05:11:36;;;;;;;13.15;2.72;;;14.30;96.80;;;;;;4178508;28;20148;-55
2023/10/14 05:13:42;;;;;;;13.65;3.20;;;14.40;97.10;;;;;;4178368;28;20045;-55
2023/10/14 05:15:52;;;;;;;24.70;3.70;;;14.30;96.80;;;;;;4240177;28;20428;-54
2023/10/14 05:18:00;;;;;;;16.20;3.00;;;14.30;96.70;;;;;;4258668;27;20042;-56
2023/10/14 05:20:16;;;;;;;16.63;3.55;;;14.20;96.80;;;;;;4264502;27;20051;-56
2023/10/14 05:22:24;;;;;;;;;;;14.30;97.50;;;;;;4265478;27;20481;-56
2023/10/14 05:24:31;;;;;;;14.30;2.80;;;14.20;97.20;;;;;;4264756;27;19926;-56
2023/10/14 05:26:36;;;;;;;11.60;2.80;;;14.10;96.90;;;;;;4264748;27;20043;-57
2023/10/14 05:28:42;;;;;;;11.20;2.67;;;14.10;97.00;;;;;;4267509;27;20043;-56
2023/10/14 05:30:48;;;;;;;15.07;2.97;;;14.10;96.80;;;;;;4267754;27;20039;-57
2023/10/14 05:32:51;;;;;;;13.98;3.58;;;14.20;97.10;;;;;;4268102;27;20039;-61
2023/10/14 05:34:53;;;;;;;11.43;2.83;;;14.10;96.60;;;;;;4268210;27;20043;-56
2023/10/14 05:37:00;;;;;;;16.98;3.08;;;14.10;97.40;;;;;;4267879;27;20047;-57
2023/10/14 05:39:10;;;;;;;15.15;3.45;;;14.00;96.50;;;;;;4267933;27;20380;-56
2023/10/14 05:41:18;;;;;;;13.43;3.17;;;14.00;96.80;;;;;;4267708;27;20141;-58
2023/10/14 05:43:21;;;;;;;19.65;3.83;;;14.00;97.70;;;;;;4267721;27;20039;-57
2023/10/14 05:45:26;;;;;;;16.10;3.45;;;14.00;97.10;;;;;;4267352;27;20115;-56
2023/10/14 05:47:28;;;;;;;17.95;3.20;;;14.10;96.80;;;;;;4267733;27;20516;-56
2023/10/14 05:49:31;;;;;;;13.43;2.90;;;14.10;97.40;;;;;;4267822;27;20396;-56
2023/10/14 05:51:39;;;;;;;12.13;3.00;;;14.10;98.20;;;;;;4267622;27;20054;-56
2023/10/14 05:53:42;;;;;;;14.00;3.40;;;14.10;98.00;;;;;;4267190;27;20047;-56
2023/10/14 05:55:47;;;;;;;14.18;3.17;;;14.10;98.40;;;;;;4267482;27;20051;-58
2023/10/14 05:57:50;;;;;;;17.38;3.45;;;14.20;98.40;;;;;;4267700;27;20043;-58
2023/10/14 05:59:53;;;;;;;14.18;3.35;;;14.20;97.70;;;;;;4269215;27;20054;-60
2023/10/14 06:01:57;;;;;;;13.73;3.25;;;14.20;97.60;;;;;;4268351;27;20411;-55
2023/10/14 06:03:59;;;;;;;12.65;3.08;;;14.10;96.70;;;;;;4267627;27;20046;-56
2023/10/14 06:06:03;;;;;;;14.68;3.42;;;14.10;97.40;;;;;;4267405;27;20051;-56
2023/10/14 06:08:11;;;;;;;18.20;4.13;;;14.20;97.60;;;;;;4267541;27;20142;-56
2023/10/14 06:10:23;;;;;;;11.25;3.28;;;14.20;97.60;;;;;;4267391;27;20042;-58
2023/10/14 06:12:25;;;;;;;19.98;4.13;;;14.20;97.30;;;;;;4267328;27;20046;-57
2023/10/14 06:14:29;;;;;;;14.50;3.35;;;14.20;97.80;;;;;;4266902;27;20113;-56
2023/10/14 06:16:32;;;;;;;15.38;3.90;;;14.20;98.30;;;;;;4267262;27;20121;-56
2023/10/14 06:18:34;;;;;;;11.85;3.30;;;14.20;98.10;;;;;;4267195;27;20406;-56
2023/10/14 06:20:36;;;;;;;13.73;3.05;;;14.20;97.40;;;;;;4267348;27;20051;-58
2023/10/14 06:22:39;;;;;;;15.63;3.75;;;14.30;97.60;;;;;;4267060;27;20084;-58
2023/10/14 06:24:42;;;;;;;15.25;3.42;;;14.30;97.80;;;;;;4267102;27;20164;-58
2023/10/14 06:26:45;;;;;;;12.95;3.17;;;14.20;97.80;;;;;;4267152;27;20042;-59
2023/10/14 06:28:55;;;;;;;13.65;3.85;;;14.20;97.70;;;;;;4266772;27;20046;-58
2023/10/14 06:31:00;;;;;;;13.40;3.38;;;14.10;97.30;;;;;;4267151;27;20042;-59
2023/10/14 06:33:05;;;;;;;13.70;3.05;;;14.10;97.90;;;;;;4248489;27;20100;-58
2023/10/14 06:35:08;;;;;;;18.13;3.85;;;14.10;97.50;;;;;;4266903;27;20047;-58
2023/10/14 06:37:13;;;;;;;14.10;3.83;;;14.10;98.30;;;;;;4266981;27;20039;-58
2023/10/14 06:39:26;;;;;;;17.85;4.13;;;14.20;98.20;;;;;;4265857;27;20039;-58
2023/10/14 06:41:29;;;;;;;16.00;3.90;;;14.20;97.60;;;;;;4267939;27;20157;-57
2023/10/14 06:43:33;;;;;;;16.27;3.22;;;14.20;97.70;;;;;;4267329;27;20054;-56
2023/10/14 06:45:37;;;;;;;16.52;2.97;;;14.20;98.60;;;;;;4269235;27;20049;-57
2023/10/14 06:47:47;;;;;;;18.00;4.07;;;14.20;97.90;;;;;;4269014;27;20038;-59
2023/10/14 06:49:50;;;;;;;14.65;3.65;;;14.20;98.30;;;;;;4268847;27;20463;-61
2023/10/14 06:51:52;;;;;;;12.25;3.30;;;14.20;98.40;;;;;;4267169;27;20419;-58
2023/10/14 06:53:55;;;;;;;13.80;3.72;;;14.10;97.80;;;;;;4267202;27;20129;-55
2023/10/14 06:56:00;;;;;;;17.02;3.38;;;14.20;97.70;;;;;;4267357;27;20043;-63
2023/10/14 06:58:05;;;;;;;16.30;3.67;;;14.30;97.50;;;;;;4266070;27;20095;-62
2023/10/14 07:00:12;;;;;;;;;;;14.30;97.80;;;;;;4267022;27;20098;-56
2023/10/14 07:02:14;;;;;;;15.38;3.20;;;14.20;97.50;;;;;;4266516;27;19972;-56
2023/10/14 07:04:18;;;;;;;10.38;2.70;;;14.30;97.60;;;;;;4266781;27;20042;-57
2023/10/14 07:06:21;;;;;;;15.02;3.00;;;14.40;98.20;;;;;;4266571;27;20042;-55
2023/10/14 07:08:24;;;;;;;14.90;3.60;;;14.40;97.70;;;;;;4266520;27;20070;-55
2023/10/14 07:10:32;;;;;;;14.60;2.88;;;14.40;97.90;;;;;;4266885;27;20389;-55
2023/10/14 07:12:37;;;;;;;13.98;3.63;;;14.40;97.60;;;;;;4265823;27;20050;-57
2023/10/14 07:14:40;;;;;;;9.88;3.35;;;14.50;97.10;;;;;;4268722;27;20051;-56
2023/10/14 07:16:42;;;;;;;12.18;3.17;;;14.60;96.70;;;;;;4267882;27;20050;-56
2023/10/14 07:18:45;;;;;;;12.05;2.75;;;14.70;97.10;;;;;;4268706;27;20456;-56
2023/10/14 07:20:56;;;;;;;13.43;3.28;;;14.80;97.70;;;;;;4267666;27;20499;-55
2023/10/14 07:22:59;;;;;;;9.23;3.00;;;14.90;96.60;;;;;;4267277;27;20057;-55
2023/10/14 07:25:03;;;;;;;9.00;2.45;;;14.90;96.60;;;;;;4266886;27;20070;-55
2023/10/14 07:27:06;;;;;;;15.25;3.00;;;15.00;97.10;;;;;;4266675;27;20053;-56
2023/10/14 07:29:08;;;;;;;12.30;3.50;;;15.00;96.80;;;;;;4266728;27;20042;-57
2023/10/14 07:31:11;;;;;;;8.55;2.53;;;15.00;96.20;;;;;;4266431;27;20039;-57
2023/10/14 07:33:14;;;;;;;10.88;3.83;;;15.00;96.20;;;;;;4266936;27;20055;-58
2023/10/14 07:35:18;;;;;;;10.55;2.97;;;15.00;95.70;;;;;;4267906;27;20122;-57
2023/10/14 07:37:24;;;;;;;14.52;3.63;;;15.00;95.30;;;;;;4268103;27;20188;-57
2023/10/14 07:39:28;;;;;;;7.90;2.45;;;14.90;95.70;;;;;;4267816;27;20074;-60
2023/10/14 07:41:31;;;;;;;;;;;15.00;95.70;;;;;;4267761;27;20058;-58
2023/10/14 07:43:34;;;;;;;13.90;3.08;;;15.00;95.30;;;;;;4266358;27;19958;-58
2023/10/14 07:45:42;;;;;;;13.70;3.88;;;15.00;96.30;;;;;;4266231;27;20066;-57
2023/10/14 07:47:44;;;;;;;14.88;3.50;;;15.10;96.00;;;;;;4266359;27;20047;-57
2023/10/14 07:49:47;;;;;;;18.15;3.53;;;15.20;96.00;;;;;;4266446;27;20046;-57
2023/10/14 07:51:51;;;;;;;12.07;2.78;;;15.20;95.50;;;;;;4266356;27;20047;-57
2023/10/14 07:53:54;;;;;;;14.90;3.10;;;15.40;95.80;;;;;;4266110;27;20400;-57
2023/10/14 07:55:57;;;;;;;16.20;3.00;;;15.40;95.20;;;;;;4265089;27;20046;-57
2023/10/14 07:58:00;;;;;;;10.45;2.67;;;15.60;95.30;;;;;;4265853;27;20407;-56
2023/10/14 08:00:11;;;;;;;17.38;3.63;;;15.60;94.60;;;;;;4265668;27;20046;-57
2023/10/14 08:02:18;;;;;;;10.95;3.00;;;15.60;94.80;;;;;;4266069;27;20054;-57
2023/10/14 08:04:23;;;;;;;11.02;2.75;;;15.70;95.00;;;;;;4265496;27;20078;-57
2023/10/14 08:06:26;;;;;;;11.82;2.85;;;15.70;95.20;;;;;;4265795;27;20046;-56
2023/10/14 08:08:31;;;;;;;12.15;3.50;;;15.80;96.10;;;;;;4265853;27;20043;-56
2023/10/14 08:10:35;;;;;;;10.77;3.35;;;15.90;94.80;;;;;;4265194;27;20061;-56
2023/10/14 08:12:37;;;;;;;12.63;3.13;;;15.90;95.50;;;;;;4265764;27;20060;-56
2023/10/14 08:14:40;;;;;;;14.30;3.38;;;15.90;95.00;;;;;;4265764;27;20039;-56
2023/10/14 08:16:42;;;;;;;13.13;3.15;;;16.00;94.60;;;;;;4265683;27;20077;-56
2023/10/14 08:18:44;;;;;;;11.73;3.22;;;16.00;94.60;;;;;;4265622;27;20052;-57
2023/10/14 08:20:47;;;;;;;10.32;2.75;;;16.10;94.80;;;;;;4260146;27;20071;-56
2023/10/14 08:22:49;;;;;;;11.70;3.30;;;16.10;94.50;;;;;;4255661;27;20464;-59
2023/10/14 08:24:52;;;;;;;13.30;3.55;;;16.10;94.10;;;;;;4260207;27;20046;-63
2023/10/14 08:26:55;;;;;;;13.27;3.33;;;16.10;94.50;;;;;;4262561;27;20393;-56
2023/10/14 08:29:00;;;;;;;15.00;3.08;;;16.20;94.10;;;;;;4264790;27;20062;-57
2023/10/14 08:31:04;;;;;;;10.57;3.20;;;16.20;93.90;;;;;;4243812;27;20043;-57
2023/10/14 08:33:09;;;;;;;12.77;3.00;;;16.30;93.50;;;;;;4259253;27;20054;-56
2023/10/14 08:35:16;;;;;;;13.43;3.85;;;16.40;93.70;;;;;;4244664;27;20047;-56
2023/10/14 08:37:18;;;;;;;11.93;2.78;;;16.40;93.60;;;;;;4261057;27;20039;-56
2023/10/14 08:39:23;;;;;;;12.88;3.22;;;16.40;93.30;;;;;;4250000;27;20559;-56
2023/10/14 08:41:33;;;;;;;11.52;2.88;;;16.40;93.40;;;;;;4261487;27;20227;-57
2023/10/14 08:43:39;;;;;;;11.07;2.92;;;16.40;93.70;;;;;;4266257;27;20043;-57
2023/10/14 08:45:47;;;;;;;14.07;2.75;;;16.40;93.20;;;;;;4248244;27;20122;-61
2023/10/14 08:47:50;;;;;;;11.57;3.10;;;16.40;93.50;;;;;;4263419;27;20042;-59
2023/10/14 08:49:54;;;;;;;12.82;3.00;;;16.40;93.20;;;;;;4252408;27;20138;-57
2023/10/14 08:51:58;;;;;;;10.45;2.90;;;16.40;92.70;;;;;;4233884;27;20095;-55
2023/10/14 08:54:01;;;;;;;10.88;2.95;;;16.40;93.40;;;;;;4264475;27;20145;-56
2023/10/14 08:56:04;;;;;;;100.40;9.38;;;16.40;93.00;;;;;;4263660;27;20057;-56
2023/10/14 08:58:13;;;;;;;30.13;4.60;;;16.50;93.10;;;;;;4259119;27;20050;-56
2023/10/14 09:00:19;;;;;;;18.20;3.58;;;16.50;92.50;;;;;;4264265;27;20042;-56
2023/10/14 09:02:22;;;;;;;14.23;3.05;;;16.40;92.40;;;;;;4264089;27;20047;-59
2023/10/14 09:04:27;;;;;;;13.60;2.90;;;16.50;92.20;;;;;;4264494;27;20051;-57
2023/10/14 09:06:29;;;;;;;;;;;16.40;91.60;;;;;;4262909;27;20047;-57
2023/10/14 09:08:33;;;;;;;13.57;2.60;;;16.50;91.10;;;;;;4257031;27;19927;-61
2023/10/14 09:10:38;;;;;;;16.83;3.22;;;16.30;91.90;;;;;;4264244;27;20051;-56
2023/10/14 09:12:51;;;;;;;12.07;3.13;;;16.30;91.80;;;;;;4264785;27;20117;-56
2023/10/14 09:14:54;;;;;;;12.80;2.88;;;16.40;92.00;;;;;;4254403;27;20047;-58
2023/10/14 09:17:03;;;;;;;11.05;2.65;;;16.60;92.30;;;;;;4257486;27;20066;-59
2023/10/14 09:19:05;;;;;;;12.60;2.90;;;16.70;91.60;;;;;;4267557;27;20415;-57
2023/10/14 09:21:07;;;;;;;34.72;5.93;;;16.60;91.60;;;;;;4266971;27;20039;-54
2023/10/14 09:23:14;;;;;;;12.48;2.97;;;16.70;91.30;;;;;;4264959;27;20047;-54
2023/10/14 09:25:17;;;;;;;14.45;3.35;;;16.80;92.00;;;;;;4250233;27;20043;-56
2023/10/14 09:27:19;;;;;;;11.07;2.75;;;16.70;91.30;;;;;;4263089;27;20042;-57
2023/10/14 09:29:22;;;;;;;10.00;2.70;;;16.70;91.30;;;;;;4266205;27;20039;-58
2023/10/14 09:31:28;;;;;;;14.73;2.95;;;16.70;90.80;;;;;;4258678;27;20073;-55
2023/10/14 09:33:34;;;;;;;9.88;2.60;;;16.70;91.10;;;;;;4262341;27;20465;-56
2023/10/14 09:35:36;;;;;;;10.68;2.78;;;16.70;91.00;;;;;;4247821;28;20160;-63
2023/10/14 09:37:39;;;;;;;10.65;2.60;;;16.70;91.50;;;;;;4260159;27;20042;-55
2023/10/14 09:39:44;;;;;;;12.77;2.55;;;16.70;91.20;;;;;;4264540;27;20341;-55
2023/10/14 09:41:47;;;;;;;10.95;3.28;;;16.60;91.70;;;;;;4260790;27;20035;-56
2023/10/14 09:43:53;;;;;;;14.52;2.95;;;16.70;92.20;;;;;;4265846;27;20043;-56
2023/10/14 09:45:56;;;;;;;11.70;2.88;;;16.70;91.40;;;;;;4263314;27;20055;-57
2023/10/14 09:48:01;;;;;;;9.93;2.30;;;16.80;91.60;;;;;;4261531;27;20046;-56
2023/10/14 09:50:13;;;;;;;10.60;2.50;;;16.90;91.50;;;;;;4260923;27;20466;-62
2023/10/14 09:52:18;;;;;;;13.13;3.25;;;16.80;91.90;;;;;;4265639;27;20046;-59
2023/10/14 09:54:23;;;;;;;10.48;2.20;;;16.80;91.90;;;;;;4253639;27;20048;-57
2023/10/14 09:56:27;;;;;;;14.00;3.25;;;16.80;91.40;;;;;;4265689;27;20051;-58
2023/10/14 09:58:46;;;;;;;10.23;2.05;;;16.80;91.90;;;;;;4264981;27;20046;-58
2023/10/14 10:00:49;;;;;;;;;;;16.80;91.10;;;;;;4266263;27;20038;-61
2023/10/14 10:02:52;;;;;;;13.55;2.80;;;16.80;91.30;;;;;;4256150;27;19926;-61
2023/10/14 10:04:56;;;;;;;14.75;2.88;;;16.70;91.60;;;;;;4265014;27;20045;-68
2023/10/14 10:07:12;;;;;;;9.15;2.65;;;16.80;91.60;;;;;;4265825;27;20050;-59
2023/10/14 10:09:41;;;;;;;9.02;2.55;;;16.90;91.90;;;;;;4247411;28;20504;-58
2023/10/14 10:11:46;;;;;;;9.65;2.17;;;17.00;91.60;;;;;;4262182;27;20043;-60
2023/10/14 10:13:48;;;;;;;11.23;2.45;;;17.20;91.70;;;;;;4256281;27;20066;-57
2023/10/14 10:15:50;;;;;;;13.52;2.97;;;17.20;91.70;;;;;;4268714;27;20408;-57
2023/10/14 10:17:56;;;;;;;9.23;2.72;;;17.20;91.70;;;;;;4260642;27;20346;-55
2023/10/14 10:20:09;;;;;;;11.48;3.22;;;17.20;90.60;;;;;;4268436;27;20057;-57
2023/10/14 10:22:17;;;;;;;7.65;2.35;;;17.20;90.60;;;;;;4266697;27;20130;-56
2023/10/14 10:24:23;;;;;;;11.27;2.50;;;17.30;90.60;;;;;;4266770;27;20506;-56
2023/10/14 10:26:25;;;;;;;15.18;3.42;;;17.30;90.80;;;;;;4267017;27;20054;-60
2023/10/14 10:28:45;;;;;;;9.82;2.70;;;17.50;91.00;;;;;;4266798;27;20540;-57
2023/10/14 10:30:49;;;;;;;11.00;3.10;;;17.40;90.20;;;;;;4258962;27;20046;-61
2023/10/14 10:32:51;;;;;;;8.55;2.75;;;17.40;90.70;;;;;;4267971;27;20053;-58
2023/10/14 10:35:13;;;;;;;9.25;2.15;;;17.40;90.40;;;;;;4264056;27;20046;-57
2023/10/14 10:37:19;;;;;;;8.70;2.70;;;17.30;90.50;;;;;;4250140;27;20051;-58
2023/10/14 10:39:21;;;;;;;10.93;2.97;;;17.40;91.00;;;;;;4239771;27;20932;-57
2023/10/14 10:41:25;;;;;;;12.55;2.75;;;17.20;90.50;;;;;;4260237;27;20494;-57
2023/10/14 10:43:30;;;;;;;11.65;3.05;;;17.40;90.40;;;;;;4267185;27;20419;-57
2023/10/14 10:45:34;;;;;;;7.32;2.50;;;17.30;89.90;;;;;;4266223;27;20039;-62
2023/10/14 10:47:51;;;;;;;9.75;2.90;;;17.30;89.70;;;;;;4264579;27;20042;-57
2023/10/14 10:49:59;;;;;;;13.38;2.92;;;17.30;89.70;;;;;;4260359;27;20457;-57
2023/10/14 10:52:14;;;;;;;14.02;3.08;;;17.40;90.00;;;;;;4256902;27;20389;-57
2023/10/14 10:54:22;;;;;;;11.87;2.60;;;17.40;90.40;;;;;;4267133;27;20038;-64
2023/10/14 10:56:26;;;;;;;13.52;2.35;;;17.20;90.30;;;;;;4267844;27;20039;-57
2023/10/14 10:58:30;;;;;;;9.95;3.08;;;17.20;90.50;;;;;;4266838;27;20047;-57
2023/10/14 11:00:33;;;;;;;10.48;2.80;;;17.20;90.60;;;;;;4264711;27;20408;-57
2023/10/14 11:02:35;;;;;;;9.18;2.50;;;17.20;90.20;;;;;;4265621;27;20141;-56
2023/10/14 11:04:39;;;;;;;8.77;2.33;;;17.20;90.50;;;;;;4265456;27;20437;-57
2023/10/14 11:06:42;;;;;;;15.07;3.55;;;17.20;90.60;;;;;;4263292;27;20067;-57
2023/10/14 11:08:47;;;;;;;12.23;3.03;;;17.40;90.80;;;;;;4247690;27;20043;-57